createdAt,value
2019-06-27T00:02:54.781Z,19.67
2019-06-27T00:05:52.529Z,24.63
2019-06-27T00:08:50.235Z,26.47
2019-06-27T00:11:47.993Z,22.50
2019-06-27T00:14:45.725Z,22.10
2019-06-27T00:17:43.500Z,29.07
2019-06-27T00:20:41.196Z,28.80
2019-06-27T00:23:39.173Z,24.13
2019-06-27T00:26:37.149Z,34.53
2019-06-27T00:29:34.928Z,24.43
2019-06-27T00:32:32.605Z,21.40
2019-06-27T00:35:30.717Z,23.10
2019-06-27T00:38:30.416Z,17.60
2019-06-27T00:41:28.445Z,26.63
2019-06-27T00:44:26.529Z,19.10
2019-06-27T00:47:24.241Z,26.73
2019-06-27T00:50:22.104Z,24.30
2019-06-27T00:53:19.930Z,24.10
2019-06-27T00:56:17.952Z,20.90
2019-06-27T00:59:15.722Z,23.17
2019-06-27T01:02:15.108Z,22.37
2019-06-27T01:05:12.950Z,24.97
2019-06-27T01:08:11.014Z,18.97
2019-06-27T01:11:09.128Z,19.80
2019-06-27T01:14:06.905Z,21.50
2019-06-27T01:17:05.187Z,21.17
2019-06-27T01:20:02.994Z,19.53
2019-06-27T01:23:00.879Z,20.50
2019-06-27T01:25:58.947Z,20.70
2019-06-27T01:28:57.317Z,20.57
2019-06-27T01:31:55.739Z,24.27
2019-06-27T01:34:53.509Z,23.27
2019-06-27T01:37:51.285Z,26.47
2019-06-27T01:40:51.051Z,27.73
2019-06-27T01:43:52.338Z,30.83
2019-06-27T01:46:48.325Z,34.63
2019-06-27T01:49:46.724Z,24.90
2019-06-27T01:52:44.424Z,25.37
2019-06-27T01:55:42.525Z,26.50
2019-06-27T01:58:40.585Z,23.50
2019-06-27T02:01:38.384Z,22.07
2019-06-27T02:04:36.497Z,24.33
2019-06-27T02:07:34.572Z,23.53
2019-06-27T02:10:32.372Z,21.40
2019-06-27T02:13:30.187Z,20.40
2019-06-27T02:16:27.959Z,23.20
2019-06-27T02:19:25.724Z,22.80
2019-06-27T02:22:23.488Z,27.30
2019-06-27T02:25:22.729Z,20.77
2019-06-27T02:28:21.004Z,23.77
2019-06-27T02:31:18.933Z,21.43
2019-06-27T02:34:17.126Z,21.80
2019-06-27T02:37:14.863Z,23.03
2019-06-27T02:40:12.736Z,21.10
2019-06-27T02:43:10.980Z,18.60
2019-06-27T02:46:08.737Z,23.83
2019-06-27T02:49:06.436Z,21.97
2019-06-27T02:52:04.309Z,28.87
2019-06-27T02:55:02.130Z,26.20
2019-06-27T02:58:00.292Z,22.37
2019-06-27T03:00:58.359Z,26.47
2019-06-27T03:03:56.133Z,24.80
2019-06-27T03:06:53.914Z,22.90
2019-06-27T03:09:53.314Z,20.13
2019-06-27T03:12:51.421Z,22.83
2019-06-27T03:15:49.204Z,24.07
2019-06-27T03:18:46.984Z,25.03
2019-06-27T03:21:44.688Z,21.03
2019-06-27T03:24:42.684Z,29.40
2019-06-27T03:27:40.819Z,23.80
2019-06-27T03:30:38.602Z,18.17
2019-06-27T03:33:37.182Z,22.33
2019-06-27T03:36:35.345Z,21.90
2019-06-27T03:39:33.442Z,24.63
2019-06-27T03:42:31.453Z,20.17
2019-06-27T03:45:29.514Z,22.53
2019-06-27T03:48:27.258Z,26.90
2019-06-27T03:51:24.954Z,23.20
2019-06-27T04:18:41.074Z,24.87
2019-06-27T04:21:40.641Z,22.40
2019-06-27T04:24:39.453Z,22.27
2019-06-27T04:27:38.337Z,25.43
2019-06-27T04:30:37.131Z,18.90
2019-06-27T04:33:36.007Z,24.87
2019-06-27T04:36:35.354Z,23.30
2019-06-27T04:39:34.459Z,24.80
2019-06-27T04:42:34.095Z,23.33
2019-06-27T04:45:33.282Z,22.83
2019-06-27T04:48:32.071Z,27.03
2019-06-27T04:51:31.180Z,24.00
2019-06-27T04:54:30.478Z,20.20
2019-06-27T04:57:30.106Z,20.60
2019-06-27T05:00:30.085Z,24.13
2019-06-27T05:03:29.348Z,31.40
2019-06-27T05:06:28.279Z,20.73
2019-06-27T05:09:27.381Z,24.23
2019-06-27T05:12:26.181Z,23.53
2019-06-27T05:15:23.943Z,20.83
2019-06-27T05:18:21.857Z,22.50
2019-06-27T05:21:19.552Z,23.27
2019-06-27T05:24:17.882Z,28.60
2019-06-27T05:27:15.602Z,26.87
2019-06-27T05:30:13.496Z,20.83
2019-06-27T05:33:12.737Z,22.07
2019-06-27T05:36:10.739Z,24.73
2019-06-27T05:39:08.491Z,23.17
2019-06-27T05:42:06.256Z,19.00
2019-06-27T05:45:04.403Z,20.67
2019-06-27T05:48:02.356Z,25.73
2019-06-27T05:51:00.179Z,23.37
2019-06-27T05:53:57.901Z,22.03
2019-06-27T05:56:55.604Z,23.47
2019-06-27T05:59:53.460Z,24.20
2019-06-27T06:02:51.149Z,26.67
2019-06-27T06:05:49.096Z,26.60
2019-06-27T06:08:46.779Z,24.40
2019-06-27T06:11:44.465Z,26.70
2019-06-27T06:14:42.655Z,24.87
2019-06-27T06:17:40.498Z,26.10
2019-06-27T06:20:38.877Z,25.47
2019-06-27T06:23:36.585Z,22.97
2019-06-27T06:26:34.688Z,28.97
2019-06-27T06:29:32.386Z,22.13
2019-06-27T06:32:30.384Z,27.10
2019-06-27T06:35:28.088Z,28.30
2019-06-27T06:38:25.843Z,18.73
2019-06-27T06:41:23.853Z,23.23
2019-06-27T06:44:21.930Z,27.87
2019-06-27T06:47:20.272Z,29.10
2019-06-27T06:50:23.152Z,31.53
2019-06-27T06:53:19.264Z,31.00
2019-06-27T06:56:17.211Z,20.13
2019-06-27T06:59:15.028Z,23.67
2019-06-27T07:02:12.792Z,28.60
2019-06-27T07:05:10.884Z,26.07
2019-06-27T07:08:08.927Z,29.03
2019-06-27T07:11:06.742Z,22.33
2019-06-27T07:14:04.598Z,25.47
2019-06-27T07:17:02.264Z,25.37
2019-06-27T07:20:00.087Z,36.20
2019-06-27T07:22:57.898Z,28.90
2019-06-27T07:25:55.589Z,26.37
2019-06-27T07:28:53.529Z,24.00
2019-06-27T07:31:51.430Z,24.00
2019-06-27T07:34:49.188Z,24.00
2019-06-27T07:37:46.959Z,25.40
2019-06-27T07:40:44.661Z,24.43
2019-06-27T07:43:42.372Z,21.40
2019-06-27T07:46:40.057Z,26.67
2019-06-27T07:49:37.881Z,25.20
2019-06-27T07:52:35.919Z,20.17
2019-06-27T07:55:33.624Z,22.93
2019-06-27T07:58:31.390Z,24.17
2019-06-27T08:01:35.243Z,30.43
2019-06-27T08:04:28.506Z,33.90
2019-06-27T08:07:26.457Z,23.57
2019-06-27T08:10:24.163Z,26.43
2019-06-27T08:13:22.140Z,27.63
2019-06-27T08:16:20.439Z,24.53
2019-06-27T08:19:18.200Z,26.03
2019-06-27T08:22:16.223Z,27.70
2019-06-27T08:25:14.024Z,22.90
2019-06-27T08:28:11.743Z,28.13
2019-06-27T08:31:09.541Z,22.63
2019-06-27T08:34:07.811Z,35.53
2019-06-27T08:37:05.513Z,33.67
2019-06-27T08:40:03.292Z,27.37
2019-06-27T08:43:01.660Z,26.67
2019-06-27T08:45:59.802Z,22.40
2019-06-27T08:48:58.069Z,28.77
2019-06-27T08:51:55.835Z,30.60
2019-06-27T08:54:53.710Z,27.60
2019-06-27T08:57:51.468Z,23.17
2019-06-27T09:00:49.490Z,25.57
2019-06-27T09:03:47.204Z,26.20
2019-06-27T09:06:45.185Z,23.80
2019-06-27T09:09:42.883Z,24.97
2019-06-27T09:12:40.644Z,26.90
2019-06-27T09:15:38.659Z,23.97
2019-06-27T09:18:36.339Z,24.47
2019-06-27T09:21:34.128Z,19.67
2019-06-27T09:24:31.810Z,19.00
2019-06-27T09:27:29.642Z,21.30
2019-06-27T09:30:27.456Z,21.53
2019-06-27T09:33:25.152Z,22.80
2019-06-27T09:36:22.932Z,24.43
2019-06-27T09:39:21.309Z,20.93
2019-06-27T09:42:19.076Z,24.50
2019-06-27T09:45:16.941Z,29.93
2019-06-27T09:48:14.719Z,23.73
2019-06-27T09:51:12.480Z,21.07
2019-06-27T09:54:10.677Z,21.00
2019-06-27T09:57:08.448Z,24.10
2019-06-27T10:00:06.492Z,23.83
2019-06-27T10:03:04.253Z,28.07
2019-06-27T10:06:01.953Z,22.03
2019-06-27T10:08:59.903Z,32.03
2019-06-27T10:11:57.695Z,22.57
2019-06-27T10:14:55.509Z,24.53
2019-06-27T10:17:53.356Z,24.53
2019-06-27T10:20:51.472Z,20.13
2019-06-27T10:23:49.433Z,23.27
2019-06-27T10:26:47.204Z,25.37
2019-06-27T10:29:44.883Z,24.00
2019-06-27T10:32:57.706Z,21.07
2019-06-27T10:35:42.100Z,22.83
2019-06-27T10:38:40.549Z,24.27
2019-06-27T10:41:38.320Z,26.43
2019-06-27T10:44:36.089Z,18.93
2019-06-27T10:47:33.856Z,30.40
2019-06-27T10:50:31.532Z,24.00
2019-06-27T10:53:29.493Z,18.63
2019-06-27T10:56:27.440Z,24.10
2019-06-27T10:59:25.132Z,24.00
2019-06-27T11:02:23.188Z,26.93
2019-06-27T11:05:21.008Z,21.50
2019-06-27T11:08:19.172Z,24.60
2019-06-27T11:11:17.160Z,27.87
2019-06-27T11:14:18.695Z,26.83
2019-06-27T11:17:15.093Z,19.70
2019-06-27T11:20:15.359Z,23.60
2019-06-27T11:23:13.289Z,25.53
2019-06-27T11:26:11.321Z,26.13
2019-06-27T11:29:09.308Z,22.80
2019-06-27T11:32:07.072Z,34.60
2019-06-27T11:35:04.849Z,31.60
2019-06-27T11:38:02.540Z,26.03
2019-06-27T11:41:00.637Z,24.50
2019-06-27T11:43:58.340Z,27.93
2019-06-27T11:46:56.440Z,24.37
2019-06-27T11:49:54.497Z,26.17
2019-06-27T11:52:52.529Z,27.33
2019-06-27T11:55:50.232Z,27.87
2019-06-27T11:58:47.959Z,25.50
2019-06-27T12:01:46.039Z,31.90
2019-06-27T12:04:43.721Z,27.17
2019-06-27T12:07:41.707Z,22.47
2019-06-27T12:10:39.468Z,22.97
2019-06-27T12:13:37.519Z,27.20
2019-06-27T12:16:35.501Z,26.63
2019-06-27T12:19:33.537Z,25.47
2019-06-27T12:22:31.215Z,24.30
2019-06-27T12:25:28.998Z,31.13
2019-06-27T12:28:26.753Z,25.70
2019-06-27T12:31:24.520Z,23.93
2019-06-27T12:34:22.300Z,26.53
2019-06-27T12:37:19.984Z,26.80
2019-06-27T12:40:18.207Z,25.90
2019-06-27T12:43:16.278Z,31.67
2019-06-27T12:46:14.200Z,26.50
2019-06-27T12:49:12.520Z,32.60
2019-06-27T12:52:10.282Z,28.80
2019-06-27T12:55:08.149Z,34.43
2019-06-27T12:58:06.089Z,24.13
2019-06-27T13:01:03.916Z,24.20
2019-06-27T13:04:01.688Z,27.07
2019-06-27T13:06:59.465Z,30.50
2019-06-27T13:09:57.236Z,35.77
2019-06-27T13:12:54.991Z,25.23
2019-06-27T13:15:52.776Z,27.97
2019-06-27T13:18:50.825Z,30.70
2019-06-27T13:21:48.608Z,28.73
2019-06-27T13:24:46.388Z,28.43
2019-06-27T13:27:44.078Z,32.97
2019-06-27T13:30:42.128Z,28.90
2019-06-27T13:33:39.808Z,27.40
2019-06-27T13:36:37.516Z,29.43
2019-06-27T13:39:35.291Z,30.63
2019-06-27T13:42:33.605Z,37.67
2019-06-27T13:45:31.304Z,33.83
2019-06-27T13:48:29.044Z,26.37
2019-06-27T13:51:26.738Z,30.07
2019-06-27T13:54:24.509Z,32.20
2019-06-27T13:57:22.880Z,26.40
2019-06-27T14:00:23.914Z,25.23
2019-06-27T14:03:22.027Z,33.60
2019-06-27T14:06:20.104Z,28.50
2019-06-27T14:09:23.306Z,32.03
2019-06-27T14:12:17.656Z,26.43
2019-06-27T14:15:15.996Z,29.63
2019-06-27T14:18:13.719Z,26.33
2019-06-27T14:21:11.428Z,27.23
2019-06-27T14:24:09.262Z,27.03
2019-06-27T14:27:07.377Z,38.53
2019-06-27T14:30:05.819Z,25.23
2019-06-27T14:33:03.900Z,20.63
2019-06-27T14:36:01.960Z,25.53
2019-06-27T14:38:59.917Z,27.23
2019-06-27T14:41:57.982Z,22.47
2019-06-27T14:44:56.140Z,26.33
2019-06-27T14:47:53.920Z,24.33
2019-06-27T14:50:52.009Z,25.63
2019-06-27T14:53:50.327Z,26.93
2019-06-27T14:56:48.021Z,28.00
2019-06-27T14:59:46.136Z,24.00
2019-06-27T15:02:44.189Z,25.47
2019-06-27T15:05:42.248Z,31.50
2019-06-27T15:08:40.239Z,29.07
2019-06-27T15:11:38.264Z,28.87
2019-06-27T15:14:36.230Z,26.70
2019-06-27T15:17:34.002Z,25.47
2019-06-27T15:20:32.244Z,32.10
2019-06-27T15:23:29.980Z,34.70
2019-06-27T15:26:27.682Z,29.67
2019-06-27T15:29:25.449Z,29.00
2019-06-27T15:32:23.395Z,29.93
2019-06-27T15:35:21.092Z,29.50
2019-06-27T15:38:19.476Z,28.73
2019-06-27T15:41:17.188Z,32.90
2019-06-27T15:44:15.188Z,25.53
2019-06-27T15:47:12.982Z,29.50
2019-06-27T15:50:11.011Z,25.87
2019-06-27T15:53:08.834Z,26.07
2019-06-27T15:56:06.595Z,24.73
2019-06-27T15:59:04.295Z,25.40
2019-06-27T16:02:02.548Z,26.03
2019-06-27T16:05:00.296Z,27.70
2019-06-27T16:07:58.436Z,25.33
2019-06-27T16:10:56.494Z,22.47
2019-06-27T16:13:54.763Z,21.80
2019-06-27T16:16:52.856Z,31.50
2019-06-27T16:19:50.936Z,30.90
2019-06-27T16:22:48.622Z,25.77
2019-06-27T16:25:47.011Z,24.17
2019-06-27T16:28:44.760Z,22.40
2019-06-27T16:31:42.808Z,23.43
2019-06-27T16:34:41.293Z,23.93
2019-06-27T16:37:39.104Z,23.40
2019-06-27T16:40:37.232Z,23.63
2019-06-27T16:43:34.932Z,24.87
2019-06-27T16:46:32.609Z,25.60
2019-06-27T16:49:30.381Z,29.23
2019-06-27T16:52:28.132Z,28.40
2019-06-27T16:55:26.265Z,24.67
2019-06-27T16:58:24.265Z,23.87
2019-06-27T17:01:21.959Z,31.50
2019-06-27T17:04:19.683Z,22.40
2019-06-27T17:07:17.384Z,22.00
2019-06-27T17:10:15.723Z,26.33
2019-06-27T17:13:13.416Z,22.80
2019-06-27T17:16:11.100Z,26.53
2019-06-27T17:19:09.206Z,25.43
2019-06-27T17:22:06.964Z,27.10
2019-06-27T17:25:05.170Z,23.27
2019-06-27T17:28:02.895Z,22.20
2019-06-27T17:31:01.034Z,23.17
2019-06-27T17:33:58.716Z,21.53
2019-06-27T17:36:57.770Z,28.50
2019-06-27T17:39:55.848Z,22.20
2019-06-27T17:42:53.631Z,25.13
2019-06-27T17:45:51.328Z,23.70
2019-06-27T17:48:49.024Z,23.27
2019-06-27T17:51:46.803Z,22.60
2019-06-27T17:54:44.506Z,23.53
2019-06-27T17:57:42.255Z,21.03
2019-06-27T18:00:40.723Z,21.83
2019-06-27T18:03:38.816Z,23.37
2019-06-27T18:06:36.834Z,23.57
2019-06-27T18:09:34.897Z,23.70
2019-06-27T18:12:32.953Z,24.00
2019-06-27T18:15:30.729Z,23.40
2019-06-27T18:18:28.451Z,26.23
2019-06-27T18:21:26.146Z,20.07
2019-06-27T18:24:24.496Z,25.73
2019-06-27T18:27:22.876Z,21.80
2019-06-27T18:30:21.943Z,22.23
2019-06-27T18:33:19.629Z,19.20
2019-06-27T18:36:17.640Z,22.50
2019-06-27T18:39:15.324Z,24.20
2019-06-27T18:42:13.018Z,26.13
2019-06-27T18:45:10.879Z,18.23
2019-06-27T18:48:08.641Z,21.77
2019-06-27T18:51:06.950Z,16.00
2019-06-27T18:54:04.697Z,15.70
2019-06-27T18:57:02.848Z,12.27
2019-06-27T19:00:00.612Z,9.93
2019-06-27T19:02:58.541Z,11.63
2019-06-27T19:05:56.607Z,12.90
2019-06-27T19:08:54.351Z,13.20
2019-06-27T19:11:52.300Z,12.90
2019-06-27T19:14:50.273Z,11.50
2019-06-27T19:17:48.217Z,14.03
2019-06-27T19:20:50.504Z,10.90
2019-06-27T19:24:00.162Z,12.80
2019-06-27T19:26:57.836Z,8.80
2019-06-27T19:29:55.507Z,10.53
2019-06-27T19:32:53.341Z,11.77
2019-06-27T19:35:51.276Z,11.57
2019-06-27T19:38:48.952Z,10.43
2019-06-27T19:41:47.038Z,12.10
2019-06-27T19:44:44.700Z,11.50
2019-06-27T19:47:42.648Z,10.90
2019-06-27T19:50:40.390Z,11.07
2019-06-27T19:53:39.107Z,9.57
2019-06-27T19:56:36.933Z,8.60
2019-06-27T19:59:34.671Z,8.17
2019-06-27T20:02:32.630Z,7.70
2019-06-27T20:05:31.617Z,6.60
2019-06-27T20:08:29.428Z,12.37
2019-06-27T20:11:27.526Z,11.20
2019-06-27T20:14:25.239Z,11.33
2019-06-27T20:17:23.174Z,14.87
2019-06-27T20:20:21.302Z,8.60
2019-06-27T20:23:19.176Z,7.93
2019-06-27T20:26:16.929Z,9.50
2019-06-27T20:29:14.616Z,10.63
2019-06-27T20:32:12.616Z,6.83
2019-06-27T20:35:10.395Z,10.87
2019-06-27T20:38:08.094Z,7.80
2019-06-27T20:41:05.769Z,7.50
2019-06-27T20:44:03.463Z,8.30
2019-06-27T20:47:01.479Z,4.83
2019-06-27T20:49:59.221Z,7.73
2019-06-27T20:52:56.924Z,6.97
2019-06-27T20:55:54.615Z,9.00
2019-06-27T20:58:52.698Z,5.83
2019-06-27T21:01:50.488Z,6.27
2019-06-27T21:04:48.500Z,7.80
2019-06-27T21:07:46.649Z,4.80
2019-06-27T21:10:44.461Z,6.93
2019-06-27T21:13:42.244Z,5.80
2019-06-27T21:16:40.388Z,3.90
2019-06-27T21:19:38.476Z,5.47
2019-06-27T21:22:36.180Z,9.03
2019-06-27T21:25:34.217Z,8.80
2019-06-27T21:28:32.166Z,4.90
2019-06-27T21:31:30.102Z,3.77
2019-06-27T21:34:28.084Z,4.83
2019-06-27T21:37:25.915Z,10.90
2019-06-27T21:40:24.208Z,6.87
2019-06-27T21:43:22.152Z,5.73
2019-06-27T21:46:19.997Z,5.97
2019-06-27T21:49:18.048Z,7.83
2019-06-27T21:52:15.812Z,5.73
2019-06-27T21:55:13.832Z,5.10
2019-06-27T21:58:11.545Z,7.40
2019-06-27T22:01:09.709Z,7.83
2019-06-27T22:04:07.788Z,6.10
2019-06-27T22:07:05.601Z,3.73
2019-06-27T22:10:03.933Z,5.50
2019-06-27T22:13:01.855Z,7.10
2019-06-27T22:15:59.640Z,4.63
2019-06-27T22:18:58.056Z,3.87
2019-06-27T22:21:56.009Z,13.60
2019-06-27T22:24:54.389Z,4.07
2019-06-27T22:27:52.452Z,10.10
2019-06-27T22:30:50.460Z,4.80
2019-06-27T22:33:48.237Z,7.93
2019-06-27T22:36:46.327Z,6.40
2019-06-27T22:40:02.428Z,4.47
2019-06-27T22:43:18.460Z,3.00
2019-06-27T22:46:34.425Z,4.40
2019-06-27T22:49:31.660Z,4.50
2019-06-27T22:52:47.727Z,5.07
2019-06-27T22:55:45.500Z,4.83
2019-06-27T22:58:43.549Z,4.60
2019-06-27T23:01:41.612Z,6.07
2019-06-27T23:04:39.338Z,5.00
2019-06-27T23:07:37.375Z,5.43
2019-06-27T23:10:35.476Z,4.20
2019-06-27T23:13:33.184Z,2.93
2019-06-27T23:16:31.236Z,4.20
2019-06-27T23:19:28.933Z,3.63
2019-06-27T23:22:26.922Z,6.30
2019-06-27T23:25:24.620Z,4.73
2019-06-27T23:28:22.754Z,3.70
2019-06-27T23:31:20.690Z,12.30
2019-06-27T23:34:18.381Z,3.80
2019-06-27T23:37:16.138Z,4.30
2019-06-27T23:40:15.214Z,3.70
2019-06-27T23:43:13.032Z,4.13
2019-06-27T23:46:30.208Z,5.30
2019-06-27T23:49:28.394Z,7.63
2019-06-27T23:52:26.079Z,4.93
2019-06-27T23:55:24.381Z,4.83
2019-06-27T23:58:22.087Z,7.10
